Aitana Del Carmen — EDCN — position and weather

sailwx.info

Track history (hours):
 
Tides and Currents Weather Stations Pressure Air Temp Water Temp Dewpoint Dewpoint Depression Visibility Wind Speed Wind Dir Waves Ship Positions

Aitana Del Carmen

Last reported at 2018-Feb-20 12:51 UTC. Time now 2018-Feb-23 10:43 UTC.
Position N 36°02' W 005°22'.

Length 27 m.

Type: Ship. MMSI: 224131460.

Date/timePositionNaut miles runAvg speedWind from/ knotsBaromVisibWave heightAir tempDewpointWater temp
2018-Feb-20 12:51N 36°02' W 005°22'3 8.5
2018-Feb-20 12:30N 35°59' W 005°21'4 8.5
2018-Feb-20 12:00N 35°55' W 005°20'1 1.0
2018-Feb-20 11:30N 35°55' W 005°20'0 0.0
2018-Feb-20 11:00N 35°55' W 005°20'0 0.0
2018-Feb-20 10:30N 35°55' W 005°20'2 3.9
2018-Feb-20 10:00N 35°56' W 005°21'8 1.0
2018-Feb-20 02:25N 36°04' W 005°23'5 0.3
2018-Feb-19 09:27N 36°09' W 005°26'  
2018-Feb-15 06:07N 36°09' W 005°27'1 5.4
2018-Feb-15 05:53N 36°08' W 005°25'4 9.0
2018-Feb-15 05:29N 36°05' W 005°24'4 8.9
2018-Feb-15 05:00N 36°01' W 005°22'4 8.8
2018-Feb-15 04:30N 35°57' W 005°20'2 4.3
2018-Feb-15 04:00N 35°55' W 005°19'0 0.1
2018-Feb-15 03:30N 35°55' W 005°19'0 0.0
2018-Feb-15 03:00N 35°55' W 005°19'0 0.0
2018-Feb-15 02:30N 35°55' W 005°19'0 0.0
2018-Feb-15 02:00N 35°55' W 005°19'0 0.0
2018-Feb-15 01:30N 35°55' W 005°19'0 0.0
2018-Feb-15 01:00N 35°55' W 005°19'0 0.8
2018-Feb-15 00:30N 35°55' W 005°20'5 9.7
2018-Feb-15 00:00N 35°59' W 005°23'5 9.5
2018-Feb-14 23:30N 36°04' W 005°24'4 8.7
2018-Feb-14 23:00N 36°08' W 005°25'1 0.0
2018-Feb-13 22:27N 36°09' W 005°26'4 9.7
2018-Feb-13 22:00N 36°05' W 005°24'5 9.2
2018-Feb-13 21:30N 36°01' W 005°22'4 8.6
2018-Feb-13 21:00N 35°57' W 005°20'2 3.8
2018-Feb-13 20:30N 35°57' W 005°22'5 0.7
2018-Feb-13 13:09N 36°03' W 005°23'1 8.5
2018-Feb-13 13:00N 36°02' W 005°22'4 8.3
2018-Feb-13 12:30N 35°58' W 005°20'3 6.5
2018-Feb-13 12:00N 35°55' W 005°19'0 0.0
2018-Feb-13 11:30N 35°55' W 005°19'0 0.0
2018-Feb-13 11:00N 35°55' W 005°19'0 0.0
2018-Feb-13 10:30N 35°55' W 005°19'0 0.1
2018-Feb-13 10:00N 35°55' W 005°19'0 0.1
2018-Feb-13 09:30N 35°55' W 005°19'1 3.0
2018-Feb-13 09:00N 35°56' W 005°20'  
2018-Feb-10 12:52N 36°05' W 005°23'  
Track history (hours):
 
Tides and Currents Weather Stations Pressure Air Temp Water Temp Dewpoint Dewpoint Depression Visibility Wind Speed Wind Dir Waves Ship Positions

Aitana Del Carmen

Last reported at 2018-Feb-20 12:51 UTC. Time now 2018-Feb-23 10:43 UTC.
Position N 36°02' W 005°22'.

Length 27 m.

Type: Ship. MMSI: 224131460.

Date/timePositionNaut miles runAvg speedWind from/ knotsBaromVisibWave heightAir tempDewpointWater temp
2018-Feb-20 12:51N 36°02' W 005°22'3 8.5
2018-Feb-20 12:30N 35°59' W 005°21'4 8.5
2018-Feb-20 12:00N 35°55' W 005°20'1 1.0
2018-Feb-20 11:30N 35°55' W 005°20'0 0.0
2018-Feb-20 11:00N 35°55' W 005°20'0 0.0
2018-Feb-20 10:30N 35°55' W 005°20'2 3.9
2018-Feb-20 10:00N 35°56' W 005°21'8 1.0
2018-Feb-20 02:25N 36°04' W 005°23'5 0.3
2018-Feb-19 09:27N 36°09' W 005°26'  
2018-Feb-15 06:07N 36°09' W 005°27'1 5.4
2018-Feb-15 05:53N 36°08' W 005°25'4 9.0
2018-Feb-15 05:29N 36°05' W 005°24'4 8.9
2018-Feb-15 05:00N 36°01' W 005°22'4 8.8
2018-Feb-15 04:30N 35°57' W 005°20'2 4.3
2018-Feb-15 04:00N 35°55' W 005°19'0 0.1
2018-Feb-15 03:30N 35°55' W 005°19'0 0.0
2018-Feb-15 03:00N 35°55' W 005°19'0 0.0
2018-Feb-15 02:30N 35°55' W 005°19'0 0.0
2018-Feb-15 02:00N 35°55' W 005°19'0 0.0
2018-Feb-15 01:30N 35°55' W 005°19'0 0.0
2018-Feb-15 01:00N 35°55' W 005°19'0 0.8
2018-Feb-15 00:30N 35°55' W 005°20'5 9.7
2018-Feb-15 00:00N 35°59' W 005°23'5 9.5
2018-Feb-14 23:30N 36°04' W 005°24'4 8.7
2018-Feb-14 23:00N 36°08' W 005°25'1 0.0
2018-Feb-13 22:27N 36°09' W 005°26'4 9.7
2018-Feb-13 22:00N 36°05' W 005°24'5 9.2
2018-Feb-13 21:30N 36°01' W 005°22'4 8.6
2018-Feb-13 21:00N 35°57' W 005°20'2 3.8
2018-Feb-13 20:30N 35°57' W 005°22'5 0.7
2018-Feb-13 13:09N 36°03' W 005°23'1 8.5
2018-Feb-13 13:00N 36°02' W 005°22'4 8.3
2018-Feb-13 12:30N 35°58' W 005°20'3 6.5
2018-Feb-13 12:00N 35°55' W 005°19'0 0.0
2018-Feb-13 11:30N 35°55' W 005°19'0 0.0
2018-Feb-13 11:00N 35°55' W 005°19'0 0.0
2018-Feb-13 10:30N 35°55' W 005°19'0 0.1
2018-Feb-13 10:00N 35°55' W 005°19'0 0.1
2018-Feb-13 09:30N 35°55' W 005°19'1 3.0
2018-Feb-13 09:00N 35°56' W 005°20'  
2018-Feb-10 12:52N 36°05' W 005°23'  

Dump ship's entire track history